createdAt,value
2022-08-17T00:03:28.801Z,13.80
2022-08-17T00:08:28.784Z,14.00
2022-08-17T00:13:28.715Z,13.30
2022-08-17T00:19:01.157Z,12.10
2022-08-17T00:23:29.606Z,15.10
2022-08-17T00:28:28.556Z,11.50
2022-08-17T00:33:28.774Z,11.90
2022-08-17T00:38:28.453Z,10.50
2022-08-17T00:43:28.373Z,13.30
2022-08-17T00:48:29.839Z,10.90
2022-08-17T00:53:28.286Z,11.30
2022-08-17T00:58:35.428Z,10.70
2022-08-17T01:03:29.177Z,14.60
2022-08-17T01:08:28.116Z,16.10
2022-08-17T01:13:28.054Z,13.60
2022-08-17T01:18:28.020Z,11.50
2022-08-17T01:23:27.944Z,9.80
2022-08-17T01:28:52.785Z,11.00
2022-08-17T01:33:28.848Z,14.60
2022-08-17T01:38:27.776Z,11.30
2022-08-17T01:43:27.785Z,12.90
2022-08-17T01:48:27.741Z,11.40
2022-08-17T01:53:27.635Z,13.10
2022-08-17T01:58:27.579Z,15.20
2022-08-17T02:03:34.589Z,13.70
2022-08-17T02:08:38.690Z,12.80
2022-08-17T02:13:28.427Z,15.30
2022-08-17T02:18:27.349Z,13.60
2022-08-17T02:23:27.286Z,11.70
2022-08-17T02:28:27.249Z,12.80
2022-08-17T02:33:42.154Z,14.90
2022-08-17T02:38:28.139Z,9.70
2022-08-17T02:43:27.088Z,16.70
2022-08-17T02:48:28.168Z,12.60
2022-08-17T02:53:26.979Z,13.60
2022-08-17T02:58:29.589Z,15.90
2022-08-17T03:03:27.861Z,13.90
2022-08-17T03:08:26.970Z,13.00
2022-08-17T03:13:26.751Z,12.50
2022-08-17T03:18:26.860Z,13.50
2022-08-17T03:23:27.276Z,16.30
2022-08-17T03:28:26.620Z,12.40
2022-08-17T03:33:26.555Z,13.50
2022-08-17T03:38:26.497Z,15.20
2022-08-17T03:43:26.430Z,14.80
2022-08-17T03:48:26.370Z,13.40
2022-08-17T03:53:27.468Z,16.00
2022-08-17T03:58:26.258Z,11.60
2022-08-17T04:03:26.213Z,18.90
2022-08-17T04:08:26.161Z,13.80
2022-08-17T04:13:26.089Z,16.00
2022-08-17T04:18:26.042Z,14.50
2022-08-17T04:23:25.977Z,14.60
2022-08-17T04:28:25.940Z,15.90
2022-08-17T04:33:25.890Z,13.50
2022-08-17T04:38:25.818Z,14.20
2022-08-17T04:43:25.760Z,14.00
2022-08-17T04:48:35.517Z,19.40
2022-08-17T04:53:26.728Z,16.60
2022-08-17T04:58:25.632Z,10.20
2022-08-17T05:03:25.551Z,12.60
2022-08-17T05:08:25.542Z,11.10
2022-08-17T05:13:25.458Z,9.20
2022-08-17T05:18:25.466Z,9.20
2022-08-17T05:23:25.361Z,8.00
2022-08-17T05:28:27.544Z,12.20
2022-08-17T05:33:25.331Z,15.80
2022-08-17T05:38:25.171Z,12.80
2022-08-17T05:43:25.119Z,11.20
2022-08-17T05:48:39.510Z,11.90
2022-08-17T05:53:26.140Z,16.10
2022-08-17T05:58:24.941Z,14.80
2022-08-17T06:03:24.971Z,19.20
2022-08-17T06:08:24.921Z,11.30
2022-08-17T06:13:24.863Z,10.30
2022-08-17T06:18:24.765Z,12.30
2022-08-17T06:23:24.786Z,11.70
2022-08-17T06:28:24.707Z,10.10
2022-08-17T06:33:24.609Z,7.90
2022-08-17T06:38:37.166Z,11.10
2022-08-17T06:43:25.490Z,11.30
2022-08-17T06:48:24.461Z,12.90
2022-08-17T06:53:24.380Z,8.80
2022-08-17T06:58:24.313Z,8.20
2022-08-17T07:03:25.281Z,14.00
2022-08-17T07:08:29.136Z,12.00
2022-08-17T07:13:25.283Z,9.40
2022-08-17T07:18:24.202Z,11.70
2022-08-17T07:23:24.045Z,13.10
2022-08-17T07:28:24.007Z,11.30
2022-08-17T07:33:23.956Z,10.10
2022-08-17T07:38:24.637Z,9.50
2022-08-17T07:43:23.902Z,10.70
2022-08-17T07:48:23.812Z,12.10
2022-08-17T07:53:23.735Z,7.60
2022-08-17T07:58:23.755Z,13.80
2022-08-17T08:03:25.982Z,8.90
2022-08-17T13:57:43.381Z,28.50
2022-08-17T14:02:43.414Z,27.20
2022-08-17T14:10:55.040Z,24.90
2022-08-17T14:15:56.699Z,24.20
2022-08-17T14:20:54.907Z,31.10
2022-08-17T14:25:54.862Z,33.40
2022-08-17T14:30:54.830Z,33.70
2022-08-17T14:35:54.804Z,36.00
2022-08-17T14:40:54.726Z,30.40
2022-08-17T14:45:54.735Z,32.10
2022-08-17T14:50:54.627Z,33.40
2022-08-17T14:55:54.613Z,31.90
2022-08-17T15:00:54.684Z,29.40
2022-08-17T15:05:54.519Z,28.50
2022-08-17T15:10:54.622Z,26.90
2022-08-17T15:15:54.489Z,30.20
2022-08-17T15:20:54.360Z,26.60
2022-08-17T15:25:54.438Z,29.20
2022-08-17T15:30:54.212Z,32.90
2022-08-17T15:35:54.176Z,38.30
2022-08-17T15:40:54.198Z,39.90
2022-08-17T15:45:59.716Z,42.70
2022-08-17T15:50:55.060Z,48.90
2022-08-17T15:55:54.955Z,51.50
2022-08-17T16:01:18.268Z,51.50
2022-08-17T16:05:54.878Z,52.50
2022-08-17T16:10:53.761Z,48.00
2022-08-17T16:15:57.019Z,46.00
2022-08-17T16:20:53.644Z,47.50
2022-08-17T16:25:54.534Z,43.80
2022-08-17T16:30:54.617Z,43.50
2022-08-17T16:35:53.473Z,37.10
2022-08-17T16:40:53.578Z,35.70
2022-08-17T16:45:53.379Z,31.20
2022-08-17T16:51:02.922Z,29.90
2022-08-17T16:55:54.429Z,27.00
2022-08-17T17:00:53.364Z,26.00
2022-08-17T17:05:57.828Z,26.40
2022-08-17T17:10:54.245Z,24.00
2022-08-17T17:15:53.034Z,26.80
2022-08-17T17:20:53.033Z,25.90
2022-08-17T17:25:56.445Z,26.20
2022-08-17T17:30:52.862Z,26.20
2022-08-17T17:35:52.917Z,28.10
2022-08-17T17:40:52.875Z,33.90
2022-08-17T17:45:52.728Z,31.50
2022-08-17T17:50:53.750Z,32.10
2022-08-17T17:55:52.817Z,31.80
2022-08-17T18:00:52.733Z,32.30
2022-08-17T18:05:52.571Z,29.60
2022-08-17T18:10:52.597Z,33.40
2022-08-17T18:15:52.651Z,33.10
2022-08-17T18:20:55.957Z,33.60
2022-08-17T18:25:52.291Z,33.80
2022-08-17T18:30:52.365Z,33.70
2022-08-17T18:35:58.811Z,33.10
2022-08-17T18:40:53.274Z,34.60
2022-08-17T18:45:52.071Z,36.60
2022-08-17T18:50:53.519Z,36.70
2022-08-17T18:55:52.056Z,38.50
2022-08-17T19:00:51.906Z,35.90
2022-08-17T19:05:51.864Z,36.80
2022-08-17T19:10:51.798Z,37.70
2022-08-17T19:16:13.718Z,38.70
2022-08-17T19:20:52.697Z,39.90
2022-08-17T19:25:52.557Z,67.80
2022-08-17T19:30:51.573Z,49.00
2022-08-17T19:35:51.590Z,44.30
2022-08-17T19:40:53.732Z,44.40
2022-08-17T19:45:51.456Z,42.80
2022-08-17T19:50:51.373Z,41.40
2022-08-17T19:55:51.395Z,36.50
2022-08-17T20:00:51.242Z,38.60
2022-08-17T20:06:11.452Z,37.20
2022-08-17T20:10:54.494Z,39.70
2022-08-17T20:15:51.046Z,41.10
2022-08-17T20:20:51.020Z,36.20
2022-08-17T20:25:50.937Z,37.40
2022-08-17T20:30:50.898Z,45.40
2022-08-17T20:35:50.861Z,41.30
2022-08-17T20:40:51.924Z,38.20
2022-08-17T20:45:50.950Z,48.10
2022-08-17T20:50:50.768Z,43.20
2022-08-17T20:55:51.644Z,42.90
2022-08-17T21:00:50.668Z,46.50
2022-08-17T21:05:50.565Z,39.20
2022-08-17T21:10:51.541Z,37.20
2022-08-17T21:15:50.423Z,38.20
2022-08-17T21:20:50.355Z,36.00
2022-08-17T21:25:50.461Z,38.40
2022-08-17T21:30:50.414Z,40.50
2022-08-17T21:35:50.369Z,38.60
2022-08-17T21:40:50.272Z,40.40
2022-08-17T21:45:50.237Z,43.70
2022-08-17T21:50:50.156Z,40.80
2022-08-17T21:55:49.996Z,41.70
2022-08-17T22:00:50.006Z,45.60
2022-08-17T22:05:49.875Z,43.90
2022-08-17T22:10:49.831Z,44.70
2022-08-17T22:15:49.772Z,45.60
2022-08-17T22:20:49.717Z,44.60
2022-08-17T22:25:49.743Z,46.10
2022-08-17T22:30:49.584Z,45.70
2022-08-17T22:35:49.548Z,44.80
2022-08-17T22:40:51.592Z,46.00
2022-08-17T22:45:49.418Z,45.90
2022-08-17T22:50:49.537Z,49.00
2022-08-17T22:55:49.334Z,49.50
2022-08-17T23:00:49.286Z,46.20
2022-08-17T23:05:49.356Z,48.90
2022-08-17T23:10:49.296Z,49.20
2022-08-17T23:15:49.085Z,46.60
2022-08-17T23:20:49.026Z,48.40
2022-08-17T23:25:48.997Z,52.90
2022-08-17T23:30:48.928Z,49.50
2022-08-17T23:35:48.846Z,52.00
2022-08-17T23:40:48.809Z,58.40
2022-08-17T23:45:48.777Z,56.50
2022-08-17T23:50:48.710Z,50.80
2022-08-17T23:55:48.646Z,61.60
